createdAt,value
2022-08-26T00:04:28.857Z,13.8
2022-08-26T00:20:11.418Z,13.4
2022-08-26T00:35:53.661Z,14.5
2022-08-26T00:51:35.743Z,14.9
2022-08-26T01:07:19.198Z,14.7
2022-08-26T01:23:01.224Z,14.7
2022-08-26T01:38:43.783Z,14
2022-08-26T01:54:26.238Z,15.1
2022-08-26T02:10:08.984Z,14.7
2022-08-26T02:25:51.302Z,15.3
2022-08-26T02:41:33.864Z,17
2022-08-26T02:57:16.208Z,16.4
2022-08-26T03:12:59.024Z,17
2022-08-26T03:28:41.251Z,17.6
2022-08-26T03:44:23.286Z,18.9
2022-08-26T04:00:06.230Z,19.5
2022-08-26T04:15:48.376Z,20.8
2022-08-26T04:31:30.753Z,20.7
2022-08-26T04:47:13.066Z,19.4
2022-08-26T04:48:00.311Z,19.7
2022-08-26T05:03:43.267Z,19.2
2022-08-26T05:19:25.291Z,15.4
2022-08-26T05:35:08.072Z,8.89
2022-08-26T05:50:50.830Z,7.9
2022-08-26T06:06:33.675Z,9
2022-08-26T06:22:15.837Z,6.3
2022-08-26T06:37:58.541Z,4.69
2022-08-26T06:53:40.656Z,4.5
2022-08-26T07:09:22.635Z,4.1
2022-08-26T07:25:05.124Z,4.5
2022-08-26T07:40:47.863Z,4.9
2022-08-26T07:56:30.282Z,4.8
2022-08-26T08:12:12.876Z,4.19
2022-08-26T08:27:55.366Z,4.4
2022-08-26T08:43:38.141Z,4.19
2022-08-26T08:59:20.091Z,4.4
2022-08-26T09:15:02.768Z,4.4
2022-08-26T09:30:44.918Z,4.5
2022-08-26T09:46:27.582Z,4.19
2022-08-26T10:02:10.446Z,4.4
2022-08-26T10:17:53.153Z,4.4
2022-08-26T10:33:35.327Z,4.5
2022-08-26T10:49:17.997Z,4.1
2022-08-26T11:05:00.709Z,4.19
2022-08-26T11:20:42.890Z,4
2022-08-26T11:36:25.401Z,4.3
2022-08-26T11:52:07.737Z,4.3
2022-08-26T12:07:50.006Z,3.4
2022-08-26T12:23:32.876Z,3.8
2022-08-26T12:39:15.705Z,3.6
2022-08-26T12:54:57.859Z,3.2
2022-08-26T13:10:40.057Z,2.8
2022-08-26T13:26:22.358Z,2.6
2022-08-26T13:42:04.320Z,2.5
2022-08-26T13:57:46.728Z,2.6
2022-08-26T14:13:29.594Z,2.7
2022-08-26T14:29:11.639Z,2.4
2022-08-26T14:44:54.047Z,2.4
2022-08-26T15:00:36.454Z,2.4
2022-08-26T15:16:18.897Z,3.4
2022-08-26T15:32:01.678Z,3.1
2022-08-26T15:47:44.485Z,2.7
2022-08-26T16:03:27.201Z,2.7
2022-08-26T16:19:09.418Z,2.8
2022-08-26T16:34:51.735Z,2.8
2022-08-26T16:50:34.362Z,2.8
2022-08-26T17:06:16.715Z,2.6
2022-08-26T17:21:59.068Z,2.8
2022-08-26T17:37:41.711Z,2.3
2022-08-26T17:53:24.637Z,2.3
2022-08-26T18:09:06.995Z,2.2
2022-08-26T18:24:49.750Z,2.2
2022-08-26T18:40:31.893Z,2.09
2022-08-26T18:56:14.566Z,2.09
2022-08-26T19:11:57.436Z,2.3
2022-08-26T19:27:40.032Z,2.2
2022-08-26T19:43:22.340Z,2.2
2022-08-26T19:59:04.846Z,2.2
2022-08-26T20:14:47.585Z,2.3
2022-08-26T20:30:29.527Z,2
2022-08-26T20:46:11.930Z,1.8
2022-08-26T21:01:54.735Z,1.9
2022-08-26T21:17:36.924Z,1.5
2022-08-26T21:33:18.913Z,2.4
2022-08-26T21:49:01.496Z,2.4
2022-08-26T22:04:43.867Z,2.2
2022-08-26T22:20:26.045Z,2.09
2022-08-26T22:36:08.302Z,2.3
2022-08-26T22:51:50.350Z,2.09
2022-08-26T23:07:32.599Z,1.9
2022-08-26T23:23:15.462Z,1.7
2022-08-26T23:38:58.334Z,1.8
2022-08-26T23:54:40.756Z,1.7
